createdAt,value
2023-03-06T00:00:27.666Z,101476.73
2023-03-06T00:02:55.119Z,101477.01
2023-03-06T00:05:22.117Z,101474.94
2023-03-06T00:07:49.637Z,101477.05
2023-03-06T00:10:22.763Z,101475.55
2023-03-06T00:12:52.645Z,101473.65
2023-03-06T00:15:19.804Z,101474.70
2023-03-06T00:17:46.834Z,101473.70
2023-03-06T00:20:14.549Z,101472.59
2023-03-06T00:22:42.035Z,101473.17
2023-03-06T00:25:14.845Z,101472.33
2023-03-06T00:27:42.262Z,101470.64
2023-03-06T00:30:12.607Z,101465.36
2023-03-06T00:32:42.990Z,101464.09
2023-03-06T00:35:11.572Z,101458.02
2023-03-06T00:37:39.217Z,101458.81
2023-03-06T00:40:08.255Z,101461.98
2023-03-06T00:42:35.274Z,101462.35
2023-03-06T00:45:02.336Z,101467.57
2023-03-06T00:47:29.263Z,101471.69
2023-03-06T00:49:56.155Z,101474.70
2023-03-06T00:52:23.157Z,101473.43
2023-03-06T00:54:50.237Z,101470.73
2023-03-06T00:57:17.394Z,101474.17
2023-03-06T00:59:44.315Z,101470.36
2023-03-06T01:02:11.449Z,101464.97
2023-03-06T01:04:38.487Z,101468.78
2023-03-06T01:07:05.530Z,101469.05
2023-03-06T01:09:32.558Z,101468.58
2023-03-06T01:11:59.613Z,101464.92
2023-03-06T01:14:28.114Z,101463.71
2023-03-06T01:16:55.072Z,101457.25
2023-03-06T01:19:22.386Z,101454.82
2023-03-06T01:21:49.261Z,101452.50
2023-03-06T01:24:16.172Z,101447.39
2023-03-06T01:26:43.105Z,101443.16
2023-03-06T01:29:10.005Z,101439.35
2023-03-06T01:31:37.485Z,101440.48
2023-03-06T01:34:04.428Z,101437.69
2023-03-06T01:36:31.734Z,101442.31
2023-03-06T01:38:58.756Z,101443.73
2023-03-06T01:41:25.654Z,101441.51
2023-03-06T01:43:53.126Z,101442.14
2023-03-06T01:46:28.884Z,101441.30
2023-03-06T01:48:58.363Z,101433.75
2023-03-06T01:51:33.608Z,101430.79
2023-03-06T01:54:08.905Z,101430.01
2023-03-06T01:56:36.664Z,101431.15
2023-03-06T01:59:04.972Z,101431.84
2023-03-06T02:01:32.750Z,101431.06
2023-03-06T02:04:01.632Z,101428.90
2023-03-06T02:06:29.738Z,101428.86
2023-03-06T02:08:57.320Z,101423.95
2023-03-06T02:11:25.274Z,101423.91
2023-03-06T02:13:54.964Z,101422.11
2023-03-06T02:16:28.762Z,101424.08
2023-03-06T02:18:56.506Z,101421.32
2023-03-06T02:21:36.667Z,101422.95
2023-03-06T02:24:32.858Z,101420.97
2023-03-06T02:27:02.264Z,101421.59
2023-03-06T02:29:30.579Z,101418.89
2023-03-06T02:31:59.872Z,101421.07
2023-03-06T02:34:26.766Z,101409.75
2023-03-06T02:37:11.800Z,101409.64
2023-03-06T02:39:44.482Z,101405.88
2023-03-06T02:42:18.772Z,101401.80
2023-03-06T02:44:45.816Z,101395.52
2023-03-06T02:47:12.682Z,101392.48
2023-03-06T02:49:39.590Z,101400.13
2023-03-06T02:52:07.663Z,101400.23
2023-03-06T02:54:34.661Z,101403.33
2023-03-06T02:57:02.386Z,101404.95
2023-03-06T02:59:30.805Z,101403.73
2023-03-06T03:01:58.134Z,101398.50
2023-03-06T03:04:25.182Z,101395.86
2023-03-06T03:06:52.915Z,101398.80
2023-03-06T03:09:20.070Z,101405.13
2023-03-06T03:11:47.505Z,101403.35
2023-03-06T03:14:16.855Z,101408.41
2023-03-06T03:16:45.540Z,101409.52
2023-03-06T03:19:12.618Z,101412.94
2023-03-06T03:21:41.184Z,101409.12
2023-03-06T03:24:09.175Z,101411.02
2023-03-06T03:26:36.385Z,101408.74
2023-03-06T03:29:08.257Z,101410.31
2023-03-06T03:31:35.244Z,101409.27
2023-03-06T03:34:02.596Z,101409.92
2023-03-06T03:36:31.956Z,101410.83
2023-03-06T03:39:00.388Z,101409.44
2023-03-06T03:41:27.769Z,101408.01
2023-03-06T03:43:54.769Z,101408.21
2023-03-06T03:46:22.710Z,101408.63
2023-03-06T03:48:50.322Z,101409.40
2023-03-06T03:51:17.365Z,101408.76
2023-03-06T03:53:47.579Z,101408.59
2023-03-06T03:56:16.023Z,101404.42
2023-03-06T03:58:50.187Z,101407.16
2023-03-06T04:01:17.821Z,101411.39
2023-03-06T04:03:44.925Z,101414.33
2023-03-06T04:06:12.105Z,101411.53
2023-03-06T04:08:39.293Z,101415.47
2023-03-06T04:11:06.624Z,101419.16
2023-03-06T04:13:33.649Z,101413.83
2023-03-06T04:16:02.224Z,101417.73
2023-03-06T04:18:29.927Z,101421.77
2023-03-06T04:21:00.043Z,101419.41
2023-03-06T04:23:28.050Z,101417.39
2023-03-06T04:25:55.530Z,101420.83
2023-03-06T04:28:22.644Z,101420.92
2023-03-06T04:30:49.852Z,101417.42
2023-03-06T04:33:17.479Z,101412.16
2023-03-06T04:35:44.818Z,101412.24
2023-03-06T04:38:16.290Z,101414.77
2023-03-06T04:40:44.884Z,101416.35
2023-03-06T04:43:12.937Z,101414.80
2023-03-06T04:45:39.992Z,101413.29
2023-03-06T04:48:07.090Z,101417.19
2023-03-06T04:50:34.295Z,101417.23
2023-03-06T04:53:02.643Z,101414.27
2023-03-06T04:55:29.656Z,101413.59
2023-03-06T04:57:57.523Z,101410.95
2023-03-06T05:00:30.680Z,101407.88
2023-03-06T05:03:02.147Z,101406.34
2023-03-06T05:05:29.810Z,101402.44
2023-03-06T05:07:57.152Z,101398.88
2023-03-06T05:10:24.174Z,101403.74
2023-03-06T05:12:51.149Z,101402.95
2023-03-06T05:15:18.492Z,101400.89
2023-03-06T05:17:46.711Z,101402.73
2023-03-06T05:20:14.665Z,101404.67
2023-03-06T05:22:41.805Z,101402.73
2023-03-06T05:25:10.820Z,101403.94
2023-03-06T05:27:38.054Z,101404.44
2023-03-06T05:30:06.019Z,101406.35
2023-03-06T05:32:35.485Z,101406.55
2023-03-06T05:35:03.015Z,101408.06
2023-03-06T05:37:30.539Z,101409.33
2023-03-06T05:39:57.581Z,101407.90
2023-03-06T05:42:25.673Z,101407.42
2023-03-06T05:44:53.831Z,101405.56
2023-03-06T05:47:20.874Z,101403.97
2023-03-06T05:49:48.024Z,101407.09
2023-03-06T05:52:17.649Z,101410.66
2023-03-06T05:54:45.250Z,101406.39
2023-03-06T05:57:12.153Z,101405.66
2023-03-06T05:59:39.056Z,101408.95
2023-03-06T06:02:06.669Z,101412.80
2023-03-06T06:04:33.700Z,101419.45
2023-03-06T06:07:01.550Z,101418.42
2023-03-06T06:09:29.902Z,101417.69
2023-03-06T06:12:00.865Z,101421.55
2023-03-06T06:14:29.038Z,101419.36
2023-03-06T06:16:56.199Z,101418.10
2023-03-06T06:19:23.549Z,101422.02
2023-03-06T06:21:54.900Z,101426.48
2023-03-06T06:24:24.721Z,101432.27
2023-03-06T06:26:54.133Z,101430.73
2023-03-06T06:29:22.361Z,101434.01
2023-03-06T06:31:50.199Z,101434.45
2023-03-06T06:34:18.708Z,101431.86
2023-03-06T06:36:46.663Z,101434.52
2023-03-06T06:39:16.707Z,101436.08
2023-03-06T06:41:59.795Z,101434.38
2023-03-06T06:44:29.924Z,101434.54
2023-03-06T06:49:45.560Z,101436.06
2023-03-06T06:52:13.581Z,101442.61
2023-03-06T06:54:41.189Z,101443.06
2023-03-06T06:57:08.198Z,101442.94
2023-03-06T06:59:35.494Z,101447.00
2023-03-06T07:02:02.436Z,101450.35
2023-03-06T07:04:29.887Z,101454.89
2023-03-06T07:06:57.254Z,101456.00
2023-03-06T07:09:24.802Z,101456.56
2023-03-06T07:11:51.750Z,101461.89
2023-03-06T07:14:19.003Z,101464.17
2023-03-06T07:16:46.047Z,101464.45
2023-03-06T07:19:13.095Z,101460.83
2023-03-06T07:21:40.463Z,101463.42
2023-03-06T07:24:07.601Z,101460.88
2023-03-06T07:26:35.007Z,101462.48
2023-03-06T07:29:03.944Z,101467.96
2023-03-06T07:31:31.592Z,101471.98
2023-03-06T07:33:58.968Z,101466.98
2023-03-06T07:36:26.120Z,101460.60
2023-03-06T07:38:53.164Z,101461.25
2023-03-06T07:41:22.460Z,101459.71
2023-03-06T07:43:50.857Z,101459.51
2023-03-06T07:46:18.243Z,101458.98
2023-03-06T07:48:45.389Z,101458.73
2023-03-06T07:51:20.996Z,101460.84
2023-03-06T07:53:49.856Z,101462.43
2023-03-06T07:56:17.353Z,101460.46
2023-03-06T07:58:46.238Z,101464.55
2023-03-06T08:01:17.959Z,101464.09
2023-03-06T08:03:45.556Z,101468.65
2023-03-06T08:06:24.579Z,101466.50
2023-03-06T08:08:53.471Z,101467.45
2023-03-06T08:11:23.178Z,101466.46
2023-03-06T08:13:52.891Z,101464.60
2023-03-06T08:16:29.277Z,101457.27
2023-03-06T08:18:57.424Z,101450.02
2023-03-06T08:21:26.729Z,101452.27
2023-03-06T08:23:53.691Z,101451.56
2023-03-06T08:26:25.408Z,101448.40
2023-03-06T08:28:54.708Z,101450.91
2023-03-06T08:31:21.647Z,101452.71
2023-03-06T08:33:48.763Z,101463.91
2023-03-06T08:36:15.763Z,101467.76
2023-03-06T08:38:42.709Z,101468.29
2023-03-06T08:41:09.971Z,101465.33
2023-03-06T08:43:37.113Z,101467.23
2023-03-06T08:46:04.546Z,101466.86
2023-03-06T08:48:31.693Z,101468.54
2023-03-06T08:50:58.767Z,101472.45
2023-03-06T08:53:40.327Z,101474.05
2023-03-06T08:56:08.645Z,101472.99
2023-03-06T08:58:35.572Z,101473.43
2023-03-06T09:01:05.505Z,101476.46
2023-03-06T09:03:32.636Z,101476.14
2023-03-06T09:06:00.104Z,101478.82
2023-03-06T09:08:27.149Z,101477.95
2023-03-06T09:10:54.656Z,101476.69
2023-03-06T09:13:22.985Z,101477.47
2023-03-06T09:15:50.026Z,101470.77
2023-03-06T09:18:17.169Z,101469.88
2023-03-06T09:20:44.301Z,101478.11
2023-03-06T09:23:11.574Z,101474.83
2023-03-06T09:25:38.471Z,101485.98
2023-03-06T09:28:11.276Z,101482.58
2023-03-06T09:30:40.676Z,101477.67
2023-03-06T09:33:08.286Z,101471.73
2023-03-06T09:35:36.044Z,101472.63
2023-03-06T09:38:02.990Z,101471.77
2023-03-06T09:40:58.600Z,101474.90
2023-03-06T09:43:31.579Z,101476.22
2023-03-06T09:45:59.916Z,101478.29
2023-03-06T09:48:47.382Z,101468.75
2023-03-06T09:51:19.344Z,101464.33
2023-03-06T09:54:10.725Z,101461.64
2023-03-06T09:56:37.820Z,101449.78
2023-03-06T09:59:14.075Z,101442.02
2023-03-06T10:02:07.351Z,101438.23
2023-03-06T10:04:49.641Z,101420.25
2023-03-06T10:07:28.769Z,101422.44
2023-03-06T10:10:06.675Z,101426.48
2023-03-06T10:12:41.393Z,101425.02
2023-03-06T10:15:15.309Z,101426.36
2023-03-06T10:17:43.803Z,101422.83
2023-03-06T10:20:27.634Z,101424.37
2023-03-06T10:23:40.960Z,101418.69
2023-03-06T10:26:16.767Z,101425.50
2023-03-06T10:28:55.999Z,101427.36
2023-03-06T10:31:27.959Z,101428.10
2023-03-06T10:34:20.061Z,101425.38
2023-03-06T10:36:47.430Z,101421.41
2023-03-06T10:39:23.456Z,101418.77
2023-03-06T10:41:50.614Z,101410.64
2023-03-06T10:44:20.047Z,101418.52
2023-03-06T10:46:49.776Z,101415.10
2023-03-06T10:49:30.502Z,101418.29
2023-03-06T10:52:03.578Z,101407.63
2023-03-06T10:54:35.038Z,101404.83
2023-03-06T10:57:28.698Z,101395.11
2023-03-06T11:00:00.740Z,101385.69
2023-03-06T11:02:41.068Z,101387.48
2023-03-06T11:05:20.672Z,101387.58
2023-03-06T11:07:56.975Z,101387.48
2023-03-06T11:10:24.685Z,101389.33
2023-03-06T11:13:08.731Z,101389.53
2023-03-06T11:15:36.187Z,101383.13
2023-03-06T11:18:05.108Z,101384.76
2023-03-06T11:20:51.520Z,101383.22
2023-03-06T11:23:32.771Z,101384.32
2023-03-06T11:26:32.585Z,101372.35
2023-03-06T11:29:29.331Z,101357.94
2023-03-06T11:32:05.556Z,101352.20
2023-03-06T11:34:41.915Z,101347.06
2023-03-06T11:37:23.732Z,101340.16
2023-03-06T11:40:24.311Z,101332.45
2023-03-06T11:43:14.896Z,101324.48
2023-03-06T11:45:46.645Z,101320.00
2023-03-06T11:48:17.771Z,101321.06
2023-03-06T11:50:48.814Z,101314.15
2023-03-06T11:53:19.120Z,101305.42
2023-03-06T11:55:52.128Z,101301.98
2023-03-06T11:58:41.207Z,101306.52
2023-03-06T12:01:16.226Z,101306.95
2023-03-06T12:04:09.690Z,101305.20
2023-03-06T12:07:01.192Z,101296.85
2023-03-06T12:09:37.394Z,101289.58
2023-03-06T12:12:28.186Z,101284.83
2023-03-06T12:15:14.031Z,101283.26
2023-03-06T12:18:02.391Z,101277.17
2023-03-06T12:20:44.419Z,101265.69
2023-03-06T12:23:17.092Z,101268.02
2023-03-06T12:25:51.667Z,101262.52
2023-03-06T12:28:33.722Z,101255.03
2023-03-06T12:31:19.807Z,101240.63
2023-03-06T12:33:58.733Z,101230.70
2023-03-06T12:36:44.112Z,101225.27
2023-03-06T12:39:35.851Z,101235.52
2023-03-06T12:42:24.498Z,101236.41
2023-03-06T12:45:16.726Z,101236.04
2023-03-06T12:47:47.560Z,101228.13
2023-03-06T12:50:23.004Z,101219.85
2023-03-06T12:52:51.946Z,101211.77
2023-03-06T12:55:23.749Z,101198.95
2023-03-06T12:57:52.819Z,101191.89
2023-03-06T13:00:35.300Z,101180.70
2023-03-06T13:03:34.492Z,101180.85
2023-03-06T13:06:12.262Z,101182.88
2023-03-06T13:09:15.048Z,101176.77
2023-03-06T13:11:54.238Z,101161.95
2023-03-06T13:14:25.891Z,101155.27
2023-03-06T13:16:53.204Z,101147.35
2023-03-06T13:19:26.893Z,101143.04
2023-03-06T13:21:57.015Z,101138.58
2023-03-06T13:24:29.794Z,101125.27
2023-03-06T13:27:02.192Z,101118.90
2023-03-06T13:29:38.319Z,101113.64
2023-03-06T13:32:15.842Z,101114.30
2023-03-06T13:34:47.110Z,101105.47
2023-03-06T13:37:14.075Z,101100.45
2023-03-06T13:39:57.026Z,101097.24
2023-03-06T13:42:29.822Z,101092.59
2023-03-06T13:45:06.173Z,101091.02
2023-03-06T13:48:05.783Z,101087.77
2023-03-06T13:50:46.700Z,101097.11
2023-03-06T13:53:51.632Z,101090.45
2023-03-06T13:56:40.037Z,101090.14
2023-03-06T13:59:16.228Z,101081.98
2023-03-06T14:02:17.451Z,101079.42
2023-03-06T14:05:01.219Z,101054.80
2023-03-06T14:07:36.025Z,101062.73
2023-03-06T14:10:15.144Z,101060.98
2023-03-06T14:12:57.550Z,101065.05
2023-03-06T14:15:32.126Z,101064.20
2023-03-06T14:18:27.380Z,101070.22
2023-03-06T14:20:58.711Z,101075.23
2023-03-06T14:23:25.677Z,101081.67
2023-03-06T14:26:08.196Z,101085.11
2023-03-06T14:28:36.073Z,101091.40
2023-03-06T14:31:05.449Z,101090.82
2023-03-06T14:33:53.507Z,101094.84
2023-03-06T14:36:23.309Z,101093.64
2023-03-06T14:38:57.222Z,101092.44
2023-03-06T14:41:30.514Z,101092.84
2023-03-06T14:44:23.682Z,101089.22
2023-03-06T14:46:55.830Z,101080.88
2023-03-06T14:49:25.456Z,101080.09
2023-03-06T14:51:55.487Z,101079.14
2023-03-06T14:54:28.963Z,101081.10
2023-03-06T14:57:13.021Z,101083.52
2023-03-06T14:59:55.520Z,101080.46
2023-03-06T15:02:27.019Z,101073.98
2023-03-06T15:05:02.003Z,101073.81
2023-03-06T15:07:31.547Z,101073.13
2023-03-06T15:10:00.794Z,101075.47
2023-03-06T15:12:29.806Z,101079.46
2023-03-06T15:14:57.074Z,101080.83
2023-03-06T15:17:33.108Z,101080.36
2023-03-06T15:20:01.302Z,101074.98
2023-03-06T15:22:44.511Z,101073.88
2023-03-06T15:25:32.163Z,101077.17
2023-03-06T15:28:00.725Z,101073.90
2023-03-06T15:30:36.620Z,101073.31
2023-03-06T15:33:26.572Z,101077.08
2023-03-06T15:36:02.062Z,101073.77
2023-03-06T15:38:42.061Z,101074.18
2023-03-06T15:41:29.182Z,101074.41
2023-03-06T15:44:01.250Z,101071.38
2023-03-06T15:46:29.518Z,101069.34
2023-03-06T15:49:03.248Z,101064.33
2023-03-06T15:51:31.940Z,101069.61
2023-03-06T15:54:12.016Z,101062.70
2023-03-06T15:56:43.073Z,101059.66
2023-03-06T15:59:20.237Z,101066.02
2023-03-06T16:01:47.610Z,101065.52
2023-03-06T16:04:17.209Z,101069.49
2023-03-06T16:06:48.241Z,101064.34
2023-03-06T16:09:15.234Z,101058.34
2023-03-06T16:11:45.151Z,101057.82
2023-03-06T16:14:24.236Z,101052.56
2023-03-06T16:16:53.745Z,101049.46
2023-03-06T16:19:26.264Z,101043.91
2023-03-06T16:21:55.904Z,101040.54
2023-03-06T16:24:22.974Z,101040.05
2023-03-06T16:26:51.541Z,101041.32
2023-03-06T16:29:24.396Z,101033.10
2023-03-06T16:31:55.866Z,101036.84
2023-03-06T16:34:23.001Z,101036.94
2023-03-06T16:36:50.642Z,101033.09
2023-03-06T16:39:20.244Z,101034.29
2023-03-06T16:41:47.364Z,101028.48
2023-03-06T16:44:14.341Z,101028.00
2023-03-06T16:46:46.447Z,101027.14
2023-03-06T16:49:18.965Z,101019.34
2023-03-06T16:51:46.266Z,101016.90
2023-03-06T16:54:14.127Z,101015.27
2023-03-06T16:56:41.975Z,101017.75
2023-03-06T16:59:10.017Z,101015.81
2023-03-06T17:01:43.404Z,101014.87
2023-03-06T17:04:14.392Z,101010.61
2023-03-06T17:06:42.064Z,101013.21
2023-03-06T17:09:11.150Z,101008.70
2023-03-06T17:11:44.125Z,101006.70
2023-03-06T17:14:11.044Z,101014.55
2023-03-06T17:16:40.495Z,101015.71
2023-03-06T17:19:07.861Z,101010.91
2023-03-06T17:21:35.732Z,101011.05
2023-03-06T17:24:03.936Z,101015.25
2023-03-06T17:26:31.245Z,101014.57
2023-03-06T17:28:58.314Z,101014.52
2023-03-06T17:31:27.398Z,101021.34
2023-03-06T17:33:59.243Z,101022.60
2023-03-06T17:36:31.234Z,101025.28
2023-03-06T17:39:00.031Z,101028.45
2023-03-06T17:41:27.224Z,101021.81
2023-03-06T17:44:02.054Z,101026.37
2023-03-06T17:46:29.105Z,101020.80
2023-03-06T17:48:56.839Z,101018.14
2023-03-06T17:51:23.827Z,101016.90
2023-03-06T17:53:52.330Z,101015.26
2023-03-06T17:56:19.381Z,101017.52
2023-03-06T17:58:46.383Z,101018.20
2023-03-06T18:01:16.185Z,101016.55
2023-03-06T18:03:49.068Z,101017.80
2023-03-06T18:06:18.584Z,101019.38
2023-03-06T18:08:46.099Z,101022.38
2023-03-06T18:11:13.625Z,101027.28
2023-03-06T18:13:42.688Z,101023.80
2023-03-06T18:16:12.996Z,101017.73
2023-03-06T18:18:40.316Z,101018.14
2023-03-06T18:21:10.127Z,101017.27
2023-03-06T18:23:38.393Z,101021.11
2023-03-06T18:26:26.768Z,101023.11
2023-03-06T18:29:02.084Z,101025.38
2023-03-06T18:31:34.443Z,101025.30
2023-03-06T18:34:04.984Z,101024.30
2023-03-06T18:36:33.537Z,101025.30
2023-03-06T18:39:03.920Z,101024.41
2023-03-06T18:41:31.329Z,101022.77
2023-03-06T18:44:00.477Z,101021.27
2023-03-06T18:46:33.379Z,101021.85
2023-03-06T18:49:01.271Z,101018.84
2023-03-06T18:51:29.027Z,101022.11
2023-03-06T18:54:03.128Z,101020.11
2023-03-06T18:56:30.723Z,101018.20
2023-03-06T18:59:04.586Z,101015.55
2023-03-06T19:01:32.305Z,101014.61
2023-03-06T19:04:01.657Z,101018.52
2023-03-06T19:06:29.324Z,101017.62
2023-03-06T19:09:01.962Z,101016.23
2023-03-06T19:11:30.059Z,101022.90
2023-03-06T19:13:56.995Z,101021.36
2023-03-06T19:16:27.697Z,101026.17
2023-03-06T19:18:55.796Z,101024.48
2023-03-06T19:21:25.647Z,101019.92
2023-03-06T19:23:56.401Z,101020.22
2023-03-06T19:26:23.667Z,101022.88
2023-03-06T19:28:52.820Z,101019.60
2023-03-06T19:31:25.605Z,101016.33
2023-03-06T19:33:55.029Z,101019.09
2023-03-06T19:36:33.581Z,101011.17
2023-03-06T19:39:03.845Z,101011.49
2023-03-06T19:41:30.986Z,101015.77
2023-03-06T19:44:02.494Z,101018.82
2023-03-06T19:46:29.645Z,101024.50
2023-03-06T19:48:58.389Z,101026.08
2023-03-06T19:51:27.053Z,101031.72
2023-03-06T19:53:54.278Z,101029.66
2023-03-06T19:56:29.207Z,101031.95
2023-03-06T19:58:56.624Z,101031.06
2023-03-06T20:01:27.835Z,101030.05
2023-03-06T20:03:59.245Z,101029.05
2023-03-06T20:06:30.357Z,101026.41
2023-03-06T20:08:57.619Z,101026.84
2023-03-06T20:11:27.073Z,101020.94
2023-03-06T20:13:54.594Z,101023.73
2023-03-06T20:16:21.634Z,101019.42
2023-03-06T20:18:48.898Z,101013.84
2023-03-06T20:21:16.978Z,101011.78
2023-03-06T20:23:43.844Z,101012.25
2023-03-06T20:26:12.867Z,101014.38
2023-03-06T20:28:41.741Z,101010.75
2023-03-06T20:31:17.510Z,101007.27
2023-03-06T20:33:50.676Z,101009.69
2023-03-06T20:36:20.754Z,101003.59
2023-03-06T20:38:48.041Z,101004.95
2023-03-06T20:41:26.313Z,101000.58
2023-03-06T20:43:53.745Z,101008.94
2023-03-06T20:46:22.745Z,101007.14
2023-03-06T20:48:51.799Z,101007.46
2023-03-06T20:51:29.835Z,101002.91
2023-03-06T20:53:56.880Z,101005.40
2023-03-06T20:56:26.745Z,101001.03
2023-03-06T20:58:54.358Z,100992.05
2023-03-06T21:01:33.304Z,100992.86
2023-03-06T21:04:01.680Z,100987.18
2023-03-06T21:06:29.241Z,100984.21
2023-03-06T21:08:57.242Z,100982.84
2023-03-06T21:11:24.685Z,100983.71
2023-03-06T21:13:53.376Z,100984.92
2023-03-06T21:16:22.314Z,100985.31
2023-03-06T21:18:49.255Z,100987.96
2023-03-06T21:21:19.698Z,100983.85
2023-03-06T21:23:47.746Z,100983.80
2023-03-06T21:26:17.894Z,100982.27
2023-03-06T21:28:44.975Z,100987.52
2023-03-06T21:31:14.280Z,100989.58
2023-03-06T21:33:42.157Z,100994.91
2023-03-06T21:36:09.410Z,100994.23
2023-03-06T21:38:36.941Z,100990.58
2023-03-06T21:41:13.327Z,100992.05
2023-03-06T21:43:41.224Z,100993.11
2023-03-06T21:46:08.241Z,100992.58
2023-03-06T21:48:35.396Z,100988.47
2023-03-06T21:51:15.925Z,100982.40
2023-03-06T21:53:44.214Z,100975.21
2023-03-06T21:56:12.905Z,100980.20
2023-03-06T21:58:40.566Z,100978.93
2023-03-06T22:01:12.668Z,100969.96
2023-03-06T22:03:39.898Z,100964.25
2023-03-06T22:06:18.791Z,100971.17
2023-03-06T22:08:46.513Z,100985.11
2023-03-06T22:11:19.731Z,100993.19
2023-03-06T22:13:48.359Z,100993.70
2023-03-06T22:16:16.243Z,100987.50
2023-03-06T22:18:51.079Z,100991.04
2023-03-06T22:21:20.306Z,100995.58
2023-03-06T22:23:51.997Z,100995.66
2023-03-06T22:26:20.007Z,101001.12
2023-03-06T22:28:47.235Z,101008.40
2023-03-06T22:31:15.444Z,101012.43
2023-03-06T22:33:42.811Z,101010.17
2023-03-06T22:36:15.723Z,101006.06
2023-03-06T22:38:44.952Z,100985.63
2023-03-06T22:41:13.961Z,100960.70
2023-03-06T22:43:41.067Z,100922.36
2023-03-06T22:46:12.279Z,100896.12
2023-03-06T22:48:39.495Z,100924.27
2023-03-06T22:51:09.612Z,100941.69
2023-03-06T22:53:37.717Z,100969.14
2023-03-06T22:56:08.894Z,100981.13
2023-03-06T22:58:39.594Z,100953.14
2023-03-06T23:01:18.258Z,100931.54
2023-03-06T23:03:48.849Z,100948.67
2023-03-06T23:06:23.865Z,100961.52
2023-03-06T23:09:22.869Z,100974.05
2023-03-06T23:12:09.305Z,100932.63
2023-03-06T23:14:54.984Z,100924.84
2023-03-06T23:17:40.655Z,100931.84
2023-03-06T23:20:26.058Z,100956.16
2023-03-06T23:23:11.636Z,100959.58
2023-03-06T23:25:41.256Z,100958.16
2023-03-06T23:28:08.248Z,100976.84
2023-03-06T23:30:35.632Z,100978.84
2023-03-06T23:33:03.727Z,100971.77
2023-03-06T23:35:33.377Z,100953.35
2023-03-06T23:38:00.491Z,100953.70
2023-03-06T23:40:29.277Z,100956.48
2023-03-06T23:42:56.984Z,100966.52
2023-03-06T23:45:23.965Z,100968.82
2023-03-06T23:47:50.877Z,100924.55
2023-03-06T23:50:18.221Z,100913.95
2023-03-06T23:52:46.915Z,100915.54
2023-03-06T23:55:14.159Z,100937.67
2023-03-06T23:57:41.117Z,100972.73
